createdAt,value
2023-03-31T00:01:52.977Z,100.00
2023-03-31T00:04:23.938Z,100.00
2023-03-31T00:06:54.362Z,100.00
2023-03-31T00:09:22.084Z,100.00
2023-03-31T00:11:49.659Z,100.00
2023-03-31T00:14:18.011Z,100.00
2023-03-31T00:16:45.614Z,100.00
2023-03-31T00:19:18.181Z,100.00
2023-03-31T00:21:45.790Z,100.00
2023-03-31T00:24:13.258Z,100.00
2023-03-31T00:26:39.904Z,100.00
2023-03-31T00:29:08.229Z,100.00
2023-03-31T00:31:36.020Z,100.00
2023-03-31T00:34:02.658Z,100.00
2023-03-31T00:36:29.130Z,100.00
2023-03-31T00:39:09.244Z,100.00
2023-03-31T00:41:39.035Z,100.00
2023-03-31T00:44:12.922Z,100.00
2023-03-31T00:46:52.217Z,100.00
2023-03-31T00:49:41.132Z,100.00
2023-03-31T00:52:30.946Z,100.00
2023-03-31T00:55:02.078Z,100.00
2023-03-31T00:57:32.473Z,100.00
2023-03-31T01:00:10.532Z,100.00
2023-03-31T01:02:41.415Z,100.00
2023-03-31T01:05:08.966Z,100.00
2023-03-31T01:07:43.204Z,100.00
2023-03-31T01:10:10.180Z,100.00
2023-03-31T01:12:47.232Z,100.00
2023-03-31T01:15:14.150Z,100.00
2023-03-31T01:17:44.805Z,100.00
2023-03-31T01:20:52.874Z,100.00
2023-03-31T01:23:19.211Z,100.00
2023-03-31T01:26:28.952Z,100.00
2023-03-31T01:29:04.036Z,100.00
2023-03-31T01:32:01.799Z,100.00
2023-03-31T01:35:05.553Z,100.00
2023-03-31T01:37:50.251Z,100.00
2023-03-31T01:40:22.471Z,100.00
2023-03-31T01:42:57.548Z,100.00
2023-03-31T01:45:53.729Z,100.00
2023-03-31T01:48:39.225Z,100.00
2023-03-31T01:51:22.177Z,100.00
2023-03-31T01:54:13.154Z,100.00
2023-03-31T01:56:46.467Z,100.00
2023-03-31T01:59:34.424Z,100.00
2023-03-31T02:02:14.227Z,100.00
2023-03-31T02:04:46.755Z,100.00
2023-03-31T02:07:18.960Z,100.00
2023-03-31T02:09:51.676Z,100.00
2023-03-31T02:12:21.875Z,100.00
2023-03-31T02:14:54.549Z,100.00
2023-03-31T02:17:32.599Z,100.00
2023-03-31T02:20:05.685Z,100.00
2023-03-31T02:22:37.508Z,100.00
2023-03-31T02:25:07.344Z,100.00
2023-03-31T02:27:43.031Z,100.00
2023-03-31T02:30:16.699Z,100.00
2023-03-31T02:32:46.602Z,100.00
2023-03-31T02:35:19.231Z,100.00
2023-03-31T02:37:46.791Z,100.00
2023-03-31T02:40:18.603Z,100.00
2023-03-31T02:42:45.217Z,100.00
2023-03-31T02:45:49.784Z,100.00
2023-03-31T02:48:29.733Z,100.00
2023-03-31T02:51:07.435Z,100.00
2023-03-31T02:53:52.723Z,100.00
2023-03-31T02:56:39.646Z,100.00
2023-03-31T02:59:33.259Z,100.00
2023-03-31T03:02:30.402Z,100.00
2023-03-31T03:04:59.948Z,100.00
2023-03-31T03:07:46.771Z,100.00
2023-03-31T03:10:58.495Z,100.00
2023-03-31T03:13:47.861Z,100.00
2023-03-31T03:16:27.696Z,100.00
2023-03-31T03:18:59.591Z,100.00
2023-03-31T03:21:26.537Z,100.00
2023-03-31T03:23:53.161Z,100.00
2023-03-31T03:26:28.134Z,100.00
2023-03-31T03:28:57.679Z,100.00
2023-03-31T03:31:25.908Z,100.00
2023-03-31T03:33:53.157Z,100.00
2023-03-31T03:36:19.945Z,100.00
2023-03-31T03:38:46.516Z,100.00
2023-03-31T03:41:12.882Z,100.00
2023-03-31T03:43:39.199Z,100.00
2023-03-31T03:46:05.918Z,100.00
2023-03-31T03:48:32.560Z,100.00
2023-03-31T03:51:02.097Z,100.00
2023-03-31T03:53:28.930Z,100.00
2023-03-31T03:55:55.464Z,100.00
2023-03-31T03:58:21.877Z,100.00
2023-03-31T04:00:48.311Z,100.00
2023-03-31T04:03:15.029Z,100.00
2023-03-31T04:05:41.691Z,100.00
2023-03-31T04:08:08.771Z,100.00
2023-03-31T04:10:36.239Z,100.00
2023-03-31T04:13:02.990Z,100.00
2023-03-31T04:15:29.559Z,100.00
2023-03-31T04:17:57.878Z,100.00
2023-03-31T04:20:27.761Z,100.00
2023-03-31T04:22:54.777Z,100.00
2023-03-31T04:25:22.661Z,100.00
2023-03-31T04:27:54.548Z,100.00
2023-03-31T04:30:30.961Z,100.00
2023-03-31T04:33:00.601Z,100.00
2023-03-31T04:35:42.682Z,100.00
2023-03-31T04:38:09.918Z,100.00
2023-03-31T04:40:36.285Z,100.00
2023-03-31T04:43:02.686Z,100.00
2023-03-31T04:45:29.081Z,100.00
2023-03-31T04:47:55.510Z,100.00
2023-03-31T04:50:22.016Z,100.00
2023-03-31T04:52:48.748Z,100.00
2023-03-31T04:55:15.592Z,100.00
2023-03-31T04:57:42.072Z,100.00
2023-03-31T05:00:09.109Z,100.00
2023-03-31T05:02:35.622Z,100.00
2023-03-31T05:05:02.096Z,100.00
2023-03-31T05:07:28.520Z,100.00
2023-03-31T05:09:54.975Z,100.00
2023-03-31T05:12:21.549Z,100.00
2023-03-31T05:14:47.989Z,100.00
2023-03-31T05:17:14.404Z,100.00
2023-03-31T05:19:40.831Z,100.00
2023-03-31T05:22:07.177Z,100.00
2023-03-31T05:24:33.639Z,100.00
2023-03-31T05:27:00.133Z,100.00
2023-03-31T05:29:26.746Z,100.00
2023-03-31T05:31:53.809Z,100.00
2023-03-31T05:34:20.501Z,100.00
2023-03-31T05:36:48.182Z,100.00
2023-03-31T05:39:14.572Z,100.00
2023-03-31T05:41:41.102Z,100.00
2023-03-31T05:44:07.492Z,100.00
2023-03-31T05:46:33.934Z,100.00
2023-03-31T05:49:00.573Z,100.00
2023-03-31T05:51:26.920Z,100.00
2023-03-31T05:53:53.332Z,100.00
2023-03-31T05:56:19.842Z,100.00
2023-03-31T05:58:46.312Z,100.00
2023-03-31T06:01:19.705Z,100.00
2023-03-31T06:03:46.784Z,100.00
2023-03-31T06:06:14.851Z,100.00
2023-03-31T06:08:41.476Z,100.00
2023-03-31T06:11:10.957Z,100.00
2023-03-31T06:13:38.649Z,100.00
2023-03-31T06:16:06.219Z,100.00
2023-03-31T06:18:35.527Z,100.00
2023-03-31T06:21:02.489Z,100.00
2023-03-31T06:23:29.072Z,100.00
2023-03-31T06:26:02.276Z,100.00
2023-03-31T06:28:28.931Z,100.00
2023-03-31T06:31:06.142Z,100.00
2023-03-31T06:33:33.917Z,100.00
2023-03-31T06:36:01.732Z,100.00
2023-03-31T06:38:28.459Z,100.00
2023-03-31T06:40:54.987Z,100.00
2023-03-31T06:43:21.504Z,100.00
2023-03-31T06:45:48.537Z,100.00
2023-03-31T06:48:15.449Z,100.00
2023-03-31T06:50:42.327Z,100.00
2023-03-31T06:53:09.453Z,100.00
2023-03-31T06:55:36.961Z,100.00
2023-03-31T06:58:04.314Z,100.00
2023-03-31T07:00:31.858Z,100.00
2023-03-31T07:02:58.959Z,100.00
2023-03-31T07:05:28.774Z,100.00
2023-03-31T07:07:56.474Z,100.00
2023-03-31T07:10:24.513Z,100.00
2023-03-31T07:12:50.977Z,100.00
2023-03-31T07:15:17.691Z,100.00
2023-03-31T07:17:44.588Z,100.00
2023-03-31T07:20:14.874Z,100.00
2023-03-31T07:22:42.090Z,100.00
2023-03-31T07:25:09.928Z,100.00
2023-03-31T07:27:36.660Z,100.00
2023-03-31T07:30:12.659Z,100.00
2023-03-31T07:32:41.143Z,100.00
2023-03-31T07:35:09.085Z,100.00
2023-03-31T07:37:39.811Z,100.00
2023-03-31T07:40:07.730Z,100.00
2023-03-31T07:42:35.517Z,100.00
2023-03-31T07:45:03.064Z,100.00
2023-03-31T07:47:29.611Z,100.00
2023-03-31T07:49:56.025Z,100.00
2023-03-31T07:52:23.454Z,100.00
2023-03-31T07:54:50.626Z,100.00
2023-03-31T07:57:19.385Z,100.00
2023-03-31T07:59:46.914Z,100.00
2023-03-31T08:02:15.808Z,100.00
2023-03-31T08:04:42.897Z,100.00
2023-03-31T08:07:11.486Z,100.00
2023-03-31T08:09:38.120Z,100.00
2023-03-31T08:12:05.643Z,100.00
2023-03-31T08:14:40.719Z,100.00
2023-03-31T08:17:08.173Z,100.00
2023-03-31T08:19:34.556Z,100.00
2023-03-31T08:22:00.952Z,100.00
2023-03-31T08:24:27.349Z,100.00
2023-03-31T08:26:53.944Z,100.00
2023-03-31T08:29:20.461Z,100.00
2023-03-31T08:31:46.918Z,100.00
2023-03-31T08:34:13.407Z,100.00
2023-03-31T08:36:39.844Z,100.00
2023-03-31T08:39:06.563Z,100.00
2023-03-31T08:41:42.401Z,100.00
2023-03-31T08:44:15.671Z,100.00
2023-03-31T08:46:43.270Z,100.00
2023-03-31T08:49:16.461Z,100.00
2023-03-31T08:52:04.783Z,100.00
2023-03-31T08:54:33.323Z,100.00
2023-03-31T08:57:03.538Z,100.00
2023-03-31T08:59:33.392Z,100.00
2023-03-31T09:02:32.250Z,100.00
2023-03-31T09:05:11.425Z,100.00
2023-03-31T09:07:48.928Z,100.00
2023-03-31T09:10:34.145Z,100.00
2023-03-31T09:13:06.576Z,100.00
2023-03-31T09:15:41.069Z,99.72
2023-03-31T09:18:32.888Z,98.53
2023-03-31T09:21:08.307Z,96.98
2023-03-31T09:24:05.170Z,96.18
2023-03-31T09:26:34.577Z,97.29
2023-03-31T09:29:06.620Z,96.57
2023-03-31T09:31:33.551Z,97.58
2023-03-31T09:34:10.149Z,98.40
2023-03-31T09:36:36.625Z,98.18
2023-03-31T09:39:03.769Z,97.21
2023-03-31T09:41:31.842Z,98.40
2023-03-31T09:43:59.430Z,98.99
2023-03-31T09:46:35.663Z,99.16
2023-03-31T09:49:13.133Z,100.00
2023-03-31T09:51:44.445Z,100.00
2023-03-31T09:54:21.325Z,100.00
2023-03-31T09:56:53.544Z,100.00
2023-03-31T09:59:23.096Z,100.00
2023-03-31T10:01:53.375Z,100.00
2023-03-31T10:04:24.164Z,100.00
2023-03-31T10:06:54.751Z,100.00
2023-03-31T10:09:26.393Z,100.00
2023-03-31T10:11:59.262Z,100.00
2023-03-31T10:14:33.164Z,100.00
2023-03-31T10:17:05.256Z,100.00
2023-03-31T10:19:34.646Z,100.00
2023-03-31T10:22:15.292Z,100.00
2023-03-31T10:24:44.972Z,100.00
2023-03-31T10:27:31.564Z,100.00
2023-03-31T10:30:00.813Z,100.00
2023-03-31T10:32:29.853Z,100.00
2023-03-31T10:34:57.847Z,99.99
2023-03-31T10:37:28.489Z,100.00
2023-03-31T10:40:01.789Z,100.00
2023-03-31T10:42:28.849Z,99.63
2023-03-31T10:45:37.189Z,98.74
2023-03-31T10:48:04.910Z,98.38
2023-03-31T10:50:34.762Z,97.49
2023-03-31T10:53:07.340Z,96.77
2023-03-31T10:55:47.440Z,95.81
2023-03-31T10:59:02.053Z,94.34
2023-03-31T11:01:46.460Z,95.22
2023-03-31T11:04:43.959Z,92.72
2023-03-31T11:07:48.761Z,93.34
2023-03-31T11:10:42.251Z,89.30
2023-03-31T11:13:08.623Z,89.86
2023-03-31T11:15:55.536Z,87.63
2023-03-31T11:18:52.990Z,87.60
2023-03-31T11:21:27.950Z,86.97
2023-03-31T11:24:32.826Z,86.63
2023-03-31T11:27:03.105Z,85.91
2023-03-31T11:29:44.051Z,86.04
2023-03-31T11:32:52.093Z,86.22
2023-03-31T11:35:54.320Z,86.92
2023-03-31T11:38:22.607Z,86.57
2023-03-31T11:41:13.259Z,86.64
2023-03-31T11:43:45.109Z,86.29
2023-03-31T11:46:27.232Z,86.04
2023-03-31T11:49:03.990Z,85.69
2023-03-31T11:51:40.325Z,84.79
2023-03-31T11:54:12.390Z,84.35
2023-03-31T11:56:41.499Z,84.14
2023-03-31T11:59:14.747Z,84.40
2023-03-31T12:01:41.266Z,82.56
2023-03-31T12:04:21.589Z,82.57
2023-03-31T12:06:49.892Z,83.37
2023-03-31T12:09:25.913Z,84.06
2023-03-31T12:12:12.975Z,83.83
2023-03-31T12:15:13.257Z,82.15
2023-03-31T12:17:43.477Z,80.54
2023-03-31T12:20:29.794Z,80.80
2023-03-31T12:22:57.709Z,81.15
2023-03-31T12:25:26.578Z,80.05
2023-03-31T12:27:54.762Z,80.49
2023-03-31T12:30:42.897Z,80.12
2023-03-31T12:33:31.456Z,80.17
2023-03-31T12:36:10.027Z,79.43
2023-03-31T12:38:45.767Z,79.27
2023-03-31T12:41:40.891Z,79.59
2023-03-31T12:44:44.776Z,80.81
2023-03-31T12:47:33.521Z,79.80
2023-03-31T12:50:32.819Z,77.13
2023-03-31T12:53:36.684Z,79.79
2023-03-31T12:56:03.272Z,83.86
2023-03-31T12:58:32.949Z,89.50
2023-03-31T13:01:07.634Z,92.41
2023-03-31T13:03:34.575Z,90.32
2023-03-31T13:06:02.719Z,87.82
2023-03-31T13:09:03.538Z,90.85
2023-03-31T13:11:36.000Z,93.76
2023-03-31T13:14:06.568Z,94.77
2023-03-31T13:16:35.523Z,95.18
2023-03-31T13:19:02.268Z,95.85
2023-03-31T13:21:28.780Z,95.20
2023-03-31T13:24:00.364Z,96.37
2023-03-31T13:26:36.212Z,96.76
2023-03-31T13:29:19.976Z,95.10
2023-03-31T13:32:01.720Z,95.46
2023-03-31T13:34:35.676Z,93.96
2023-03-31T13:37:24.679Z,90.58
2023-03-31T13:40:29.819Z,90.07
2023-03-31T13:43:20.286Z,90.59
2023-03-31T13:45:58.775Z,88.41
2023-03-31T13:48:37.060Z,88.00
2023-03-31T13:51:54.343Z,87.60
2023-03-31T13:54:49.240Z,86.65
2023-03-31T13:57:28.404Z,86.88
2023-03-31T14:00:19.768Z,87.25
2023-03-31T14:03:12.526Z,86.41
2023-03-31T14:05:53.602Z,84.59
2023-03-31T14:08:33.651Z,85.42
2023-03-31T14:11:29.624Z,84.53
2023-03-31T14:14:00.954Z,83.19
2023-03-31T14:16:29.695Z,82.89
2023-03-31T14:19:16.049Z,83.86
2023-03-31T14:21:53.644Z,84.21
2023-03-31T14:24:33.312Z,85.74
2023-03-31T14:27:21.593Z,85.17
2023-03-31T14:30:29.647Z,85.62
2023-03-31T14:33:17.946Z,87.69
2023-03-31T14:36:19.215Z,88.45
2023-03-31T14:38:46.103Z,90.85
2023-03-31T14:41:21.153Z,93.80
2023-03-31T14:43:51.079Z,97.08
2023-03-31T14:46:24.422Z,98.96
2023-03-31T14:48:52.004Z,99.04
2023-03-31T14:51:26.872Z,99.78
2023-03-31T14:53:58.071Z,100.00
2023-03-31T14:56:37.985Z,99.88
2023-03-31T14:59:07.284Z,98.22
2023-03-31T15:01:37.656Z,94.13
2023-03-31T15:04:12.706Z,94.12
2023-03-31T15:06:42.206Z,94.33
2023-03-31T15:09:18.383Z,93.71
2023-03-31T15:11:47.156Z,92.11
2023-03-31T15:14:13.672Z,92.25
2023-03-31T15:16:45.204Z,89.73
2023-03-31T15:19:17.486Z,88.07
2023-03-31T15:21:45.571Z,89.26
2023-03-31T15:24:13.931Z,89.23
2023-03-31T15:26:51.163Z,88.98
2023-03-31T15:29:20.182Z,89.08
2023-03-31T15:31:48.176Z,88.42
2023-03-31T15:34:36.690Z,87.89
2023-03-31T15:37:03.765Z,87.77
2023-03-31T15:39:33.173Z,87.88
2023-03-31T15:42:02.518Z,85.81
2023-03-31T15:44:46.774Z,86.71
2023-03-31T15:47:21.669Z,86.51
2023-03-31T15:49:54.498Z,84.63
2023-03-31T15:52:24.755Z,85.60
2023-03-31T15:54:51.685Z,86.73
2023-03-31T15:57:19.715Z,85.35
2023-03-31T15:59:56.309Z,86.02
2023-03-31T16:02:26.370Z,87.01
2023-03-31T16:04:59.340Z,87.89
2023-03-31T16:07:34.444Z,88.20
2023-03-31T16:10:10.146Z,90.76
2023-03-31T16:12:43.516Z,90.79
2023-03-31T16:15:14.119Z,93.36
2023-03-31T16:18:15.017Z,96.84
2023-03-31T16:20:52.546Z,94.22
2023-03-31T16:23:25.319Z,93.56
2023-03-31T16:25:52.514Z,94.36
2023-03-31T16:28:26.218Z,95.69
2023-03-31T16:30:54.564Z,95.64
2023-03-31T16:33:25.850Z,95.56
2023-03-31T16:35:56.247Z,96.53
2023-03-31T16:38:25.507Z,97.31
2023-03-31T16:40:56.936Z,97.53
2023-03-31T16:43:34.326Z,96.57
2023-03-31T16:46:04.017Z,95.33
2023-03-31T16:48:34.708Z,95.40
2023-03-31T16:51:01.573Z,95.39
2023-03-31T16:53:31.117Z,95.12
2023-03-31T16:55:57.959Z,94.58
2023-03-31T16:58:24.807Z,94.32
2023-03-31T17:00:51.997Z,93.21
2023-03-31T17:03:19.372Z,94.43
2023-03-31T17:05:48.159Z,95.38
2023-03-31T17:08:15.985Z,93.19
2023-03-31T17:10:50.041Z,93.70
2023-03-31T17:13:16.531Z,91.38
2023-03-31T17:15:42.917Z,91.75
2023-03-31T17:18:09.421Z,90.31
2023-03-31T17:20:36.234Z,90.51
2023-03-31T17:23:02.922Z,89.54
2023-03-31T17:25:29.409Z,88.38
2023-03-31T17:27:56.286Z,89.59
2023-03-31T17:30:23.459Z,90.81
2023-03-31T17:32:51.544Z,94.19
2023-03-31T17:35:21.588Z,96.24
2023-03-31T17:37:53.784Z,97.16
2023-03-31T17:40:21.691Z,96.96
2023-03-31T17:42:48.136Z,97.52
2023-03-31T17:45:14.696Z,99.59
2023-03-31T17:47:41.985Z,97.88
2023-03-31T17:50:09.590Z,98.17
2023-03-31T17:52:36.512Z,98.45
2023-03-31T17:55:04.243Z,99.30
2023-03-31T17:57:31.853Z,99.27
2023-03-31T17:59:58.511Z,99.22
2023-03-31T18:02:25.011Z,100.00
2023-03-31T18:04:51.538Z,98.80
2023-03-31T18:07:18.437Z,97.99
2023-03-31T18:09:45.502Z,98.28
2023-03-31T18:12:11.954Z,97.55
2023-03-31T18:14:38.405Z,96.47
2023-03-31T18:17:04.988Z,96.70
2023-03-31T18:19:31.906Z,97.20
2023-03-31T18:21:58.339Z,97.41
2023-03-31T18:24:24.887Z,97.14
2023-03-31T18:26:51.511Z,96.09
2023-03-31T18:29:17.860Z,95.34
2023-03-31T18:31:44.318Z,96.63
2023-03-31T18:34:10.815Z,95.92
2023-03-31T18:36:37.329Z,96.32
2023-03-31T18:39:04.145Z,97.89
2023-03-31T18:41:30.525Z,99.45
2023-03-31T18:43:56.939Z,100.00
2023-03-31T18:46:23.403Z,100.00
2023-03-31T18:48:50.263Z,100.00
2023-03-31T18:51:16.858Z,100.00
2023-03-31T18:53:43.308Z,100.00
2023-03-31T18:56:09.765Z,100.00
2023-03-31T18:58:37.212Z,100.00
2023-03-31T19:01:03.636Z,100.00
2023-03-31T19:03:30.748Z,99.87
2023-03-31T19:06:05.408Z,99.53
2023-03-31T19:08:32.454Z,99.88
2023-03-31T19:11:09.626Z,100.00
2023-03-31T19:13:36.786Z,99.08
2023-03-31T19:16:03.240Z,99.10
2023-03-31T19:18:29.855Z,98.21
2023-03-31T19:20:58.506Z,99.01
2023-03-31T19:23:25.100Z,99.42
2023-03-31T19:25:53.736Z,98.79
2023-03-31T19:28:21.620Z,98.01
2023-03-31T19:30:52.997Z,97.99
2023-03-31T19:33:19.942Z,97.28
2023-03-31T19:35:48.477Z,96.89
2023-03-31T19:38:15.342Z,96.31
2023-03-31T19:40:42.895Z,95.47
2023-03-31T19:43:19.253Z,95.64
2023-03-31T19:45:47.447Z,95.07
2023-03-31T19:48:14.502Z,94.36
2023-03-31T19:50:41.075Z,94.89
2023-03-31T19:53:07.521Z,94.26
2023-03-31T19:55:37.451Z,93.38
2023-03-31T19:58:03.970Z,93.97
2023-03-31T20:00:30.451Z,94.24
2023-03-31T20:02:57.012Z,95.33
2023-03-31T20:05:23.661Z,94.78
2023-03-31T20:07:50.337Z,95.68
2023-03-31T20:10:16.808Z,95.79
2023-03-31T20:12:43.363Z,95.05
2023-03-31T20:15:09.759Z,95.30
2023-03-31T20:17:36.199Z,95.19
2023-03-31T20:20:03.062Z,95.26
2023-03-31T20:22:29.416Z,95.56
2023-03-31T20:24:56.169Z,95.95
2023-03-31T20:27:26.306Z,96.01
2023-03-31T20:29:53.105Z,95.87
2023-03-31T20:32:19.463Z,95.67
2023-03-31T20:34:45.812Z,95.96
2023-03-31T20:37:15.271Z,96.48
2023-03-31T20:39:42.283Z,95.49
2023-03-31T20:42:08.754Z,95.45
2023-03-31T20:44:35.170Z,95.52
2023-03-31T20:47:01.730Z,96.12
2023-03-31T20:49:28.218Z,96.38
2023-03-31T20:51:54.763Z,97.01
2023-03-31T20:54:21.532Z,97.07
2023-03-31T20:56:49.523Z,96.27
2023-03-31T20:59:16.049Z,96.50
2023-03-31T21:01:42.927Z,96.62
2023-03-31T21:04:11.016Z,96.00
2023-03-31T21:06:40.512Z,96.10
2023-03-31T21:09:07.742Z,96.26
2023-03-31T21:11:34.547Z,94.98
2023-03-31T21:14:01.822Z,96.02
2023-03-31T21:16:28.239Z,96.00
2023-03-31T21:18:55.083Z,96.90
2023-03-31T21:21:24.337Z,95.89
2023-03-31T21:23:51.507Z,95.89
2023-03-31T21:26:18.254Z,95.12
2023-03-31T21:28:45.447Z,95.21
2023-03-31T21:31:17.913Z,95.16
2023-03-31T21:33:46.265Z,94.88
2023-03-31T21:36:16.290Z,94.21
2023-03-31T21:38:43.489Z,94.76
2023-03-31T21:41:12.584Z,94.46
2023-03-31T21:43:39.211Z,94.79
2023-03-31T21:46:06.803Z,95.09
2023-03-31T21:48:34.113Z,93.46
2023-03-31T21:51:02.756Z,94.62
2023-03-31T21:53:30.983Z,94.24
2023-03-31T21:55:58.627Z,94.73
2023-03-31T21:58:28.790Z,93.91
2023-03-31T22:00:56.445Z,94.27
2023-03-31T22:03:27.419Z,94.35
2023-03-31T22:05:58.592Z,94.08
2023-03-31T22:08:27.025Z,93.71
2023-03-31T22:10:54.610Z,93.36
2023-03-31T22:13:22.272Z,93.68
2023-03-31T22:15:49.074Z,93.98
2023-03-31T22:18:16.984Z,93.69
2023-03-31T22:20:43.571Z,93.81
2023-03-31T22:23:10.050Z,94.39
2023-03-31T22:25:36.494Z,93.08
2023-03-31T22:28:05.961Z,92.64
2023-03-31T22:30:33.540Z,93.15
2023-03-31T22:32:59.996Z,92.81
2023-03-31T22:35:26.670Z,92.74
2023-03-31T22:37:53.314Z,93.05
2023-03-31T22:40:19.708Z,92.84
2023-03-31T22:42:46.248Z,92.83
2023-03-31T22:45:12.714Z,91.95
2023-03-31T22:47:42.093Z,92.75
2023-03-31T22:50:10.252Z,93.06
2023-03-31T22:52:36.868Z,93.02
2023-03-31T22:55:04.280Z,92.13
2023-03-31T22:57:31.143Z,92.12
2023-03-31T22:59:57.570Z,92.46
2023-03-31T23:02:24.137Z,91.75
2023-03-31T23:04:50.609Z,92.75
2023-03-31T23:07:17.878Z,92.17
2023-03-31T23:09:44.259Z,92.29
2023-03-31T23:12:10.823Z,92.49
2023-03-31T23:14:37.209Z,91.97
2023-03-31T23:17:03.824Z,92.44
2023-03-31T23:19:30.651Z,92.63
2023-03-31T23:21:58.300Z,91.86
2023-03-31T23:24:24.987Z,91.84
2023-03-31T23:26:52.337Z,92.73
2023-03-31T23:29:18.724Z,92.10
2023-03-31T23:31:45.126Z,92.21
2023-03-31T23:34:13.847Z,92.20
2023-03-31T23:36:40.385Z,92.33
2023-03-31T23:39:06.848Z,92.23
2023-03-31T23:41:33.472Z,92.08
2023-03-31T23:44:00.092Z,91.79
2023-03-31T23:46:26.678Z,91.37
2023-03-31T23:48:53.859Z,92.40
2023-03-31T23:51:20.406Z,92.67
2023-03-31T23:53:47.355Z,92.53
2023-03-31T23:56:14.246Z,91.92
2023-03-31T23:58:42.851Z,91.99
